Time;durP1;ratioP1;P1;durP2;ratioP2;P2;SDS_P1;SDS_P2;PMS_P1;PMS_P2;Temp;Humidity;BMP_temperature;BMP_pressure;BME280_temperature;BME280_humidity;BME280_pressure;Samples;Min_cycle;Max_cycle;Signal;HPM_P1;HPM_P2
2023/03/28 00:01:10;;;;;;;0.82;0.50;;;18.10;43.00;;;;;;6051535;23;20158;-83
2023/03/28 00:03:48;;;;;;;1.85;0.60;;;18.10;42.90;;;;;;6052356;23;20179;-84
2023/03/28 00:06:20;;;;;;;1.10;0.50;;;18.10;42.90;;;;;;6027643;23;20237;-83
2023/03/28 00:08:50;;;;;;;1.23;0.60;;;18.10;43.10;;;;;;5982470;23;20498;-84
2023/03/28 00:11:18;;;;;;;2.55;0.65;;;18.10;43.00;;;;;;6027701;23;20161;-83
2023/03/28 00:13:56;;;;;;;2.65;0.77;;;18.10;43.10;;;;;;6053034;23;20587;-84
2023/03/28 00:16:30;;;;;;;0.40;0.40;;;18.10;43.20;;;;;;6054267;23;20157;-84
2023/03/28 00:18:59;;;;;;;0.40;0.40;;;18.10;43.10;;;;;;6006044;23;20192;-84
2023/03/28 00:21:33;;;;;;;1.52;0.50;;;18.10;43.00;;;;;;6052233;23;20562;-84
2023/03/28 00:24:01;;;;;;;1.08;0.57;;;18.10;43.10;;;;;;6028953;23;20151;-83
2023/03/28 00:26:33;;;;;;;1.40;0.50;;;18.10;43.00;;;;;;6029011;23;20226;-84
2023/03/28 00:29:11;;;;;;;0.65;0.43;;;18.10;43.10;;;;;;6004717;23;20241;-84
2023/03/28 00:31:45;;;;;;;2.15;0.50;;;18.10;43.10;;;;;;5977105;23;20155;-84
2023/03/28 00:34:11;;;;;;;2.15;0.63;;;18.10;43.00;;;;;;5953403;23;20538;-83
2023/03/28 00:36:38;;;;;;;1.25;0.40;;;18.10;43.30;;;;;;5976912;23;20163;-84
2023/03/28 00:39:09;;;;;;;0.80;0.60;;;18.10;43.20;;;;;;5976161;23;20174;-85
2023/03/28 00:41:42;;;;;;;0.73;0.40;;;18.10;43.20;;;;;;5931368;23;20154;-84
2023/03/28 00:44:42;;;;;;;0.60;0.50;;;18.00;43.30;;;;;;5966419;24;20512;-84
2023/03/28 00:47:14;;;;;;;0.25;0.25;;;18.10;43.30;;;;;;5943354;24;20156;-84
2023/03/28 00:49:49;;;;;;;1.40;0.70;;;18.00;43.30;;;;;;5889727;24;20221;-84
2023/03/28 00:52:24;;;;;;;1.05;0.50;;;18.00;43.40;;;;;;5867585;24;20169;-84
2023/03/28 00:54:50;;;;;;;1.55;0.60;;;18.00;43.00;;;;;;5844227;24;20168;-84
2023/03/28 00:57:21;;;;;;;1.73;0.60;;;18.00;43.10;;;;;;5889262;24;20169;-83
2023/03/28 00:59:47;;;;;;;1.70;0.77;;;18.00;43.20;;;;;;5866403;24;20215;-84
2023/03/28 01:02:17;;;;;;;1.75;0.40;;;18.00;43.30;;;;;;5889094;24;20244;-84
2023/03/28 01:05:02;;;;;;;0.82;0.50;;;18.00;43.20;;;;;;5868818;24;20157;-84
2023/03/28 01:07:32;;;;;;;2.17;0.70;;;18.00;43.30;;;;;;5848061;24;20158;-84
2023/03/28 01:10:02;;;;;;;1.08;0.57;;;18.00;43.40;;;;;;5962349;24;20185;-85
2023/03/28 01:12:33;;;;;;;1.40;0.55;;;18.00;43.20;;;;;;5922568;24;20148;-84
2023/03/28 01:15:03;;;;;;;1.25;0.47;;;18.00;43.30;;;;;;5904888;24;20159;-84
2023/03/28 01:17:29;;;;;;;0.70;0.50;;;18.00;43.30;;;;;;5899657;24;20160;-84
2023/03/28 01:20:16;;;;;;;1.60;0.50;;;18.00;43.50;;;;;;5956576;23;20229;-85
2023/03/28 01:23:12;;;;;;;1.23;0.70;;;18.00;43.50;;;;;;6000963;23;20151;-84
2023/03/28 01:26:02;;;;;;;2.53;0.60;;;17.90;43.40;;;;;;5958538;23;20266;-83
2023/03/28 01:28:48;;;;;;;0.88;0.50;;;18.00;43.50;;;;;;6000404;23;20188;-83
2023/03/28 01:31:45;;;;;;;1.33;0.60;;;18.00;43.50;;;;;;5995470;24;20159;-83
2023/03/28 01:34:29;;;;;;;1.42;0.45;;;18.00;43.40;;;;;;5972562;24;20180;-83
2023/03/28 01:37:22;;;;;;;1.60;0.60;;;17.90;43.50;;;;;;5951203;24;20167;-84
2023/03/28 01:40:33;;;;;;;2.80;0.60;;;18.00;43.60;;;;;;5950274;24;20214;-83
2023/03/28 01:43:11;;;;;;;1.33;0.50;;;17.90;43.40;;;;;;5972580;24;20179;-84
2023/03/28 01:46:00;;;;;;;0.77;0.40;;;17.90;43.70;;;;;;5950771;24;20194;-84
2023/03/28 01:48:29;;;;;;;2.47;0.50;;;17.90;43.50;;;;;;6010795;23;20159;-84
2023/03/28 01:51:06;;;;;;;1.50;0.80;;;17.90;43.70;;;;;;6048421;23;20214;-83
2023/03/28 01:53:47;;;;;;;0.73;0.40;;;17.90;43.70;;;;;;6001865;23;20186;-84
2023/03/28 01:56:26;;;;;;;0.70;0.50;;;17.90;43.60;;;;;;5976987;23;20166;-83
2023/03/28 01:59:13;;;;;;;1.55;0.47;;;18.00;43.50;;;;;;6001781;23;20348;-83
2023/03/28 02:01:48;;;;;;;0.70;0.50;;;18.00;43.50;;;;;;6053843;23;20157;-84
2023/03/28 02:04:19;;;;;;;0.82;0.50;;;17.90;43.50;;;;;;6054268;23;20141;-84
2023/03/28 02:06:50;;;;;;;1.27;0.50;;;17.90;43.50;;;;;;6053874;23;20259;-84
2023/03/28 02:09:20;;;;;;;1.23;0.40;;;17.90;43.60;;;;;;6005925;23;20154;-84
2023/03/28 02:11:50;;;;;;;1.73;0.65;;;17.90;43.50;;;;;;6029978;23;20150;-84
2023/03/28 02:14:18;;;;;;;1.23;0.40;;;17.90;43.60;;;;;;6029658;23;20150;-83
2023/03/28 02:16:56;;;;;;;0.98;0.60;;;17.90;43.60;;;;;;6030324;23;20156;-84
2023/03/28 02:19:27;;;;;;;1.30;0.50;;;17.90;43.50;;;;;;6028678;23;20626;-84
2023/03/28 02:22:22;;;;;;;2.38;0.60;;;17.90;43.60;;;;;;6029833;23;20246;-84
2023/03/28 02:24:52;;;;;;;1.65;0.57;;;17.90;43.60;;;;;;6031942;23;20161;-84
2023/03/28 02:27:19;;;;;;;1.33;0.60;;;17.90;43.60;;;;;;6030443;23;20201;-84
2023/03/28 02:29:54;;;;;;;0.88;0.57;;;17.90;43.70;;;;;;6053245;23;20142;-84
2023/03/28 02:32:21;;;;;;;1.48;0.80;;;17.90;43.50;;;;;;6006404;23;20183;-83
2023/03/28 02:34:47;;;;;;;1.02;0.63;;;17.90;43.70;;;;;;6030769;23;20165;-84
2023/03/28 02:37:53;;;;;;;0.90;0.50;;;17.90;43.70;;;;;;6053288;23;20134;-83
2023/03/28 02:40:24;;;;;;;0.70;0.50;;;17.80;43.60;;;;;;6054360;23;20193;-83
2023/03/28 02:43:14;;;;;;;1.35;0.70;;;17.80;43.60;;;;;;6023323;23;20179;-83
2023/03/28 02:46:03;;;;;;;0.73;0.55;;;18.00;43.70;;;;;;6002814;23;20151;-84
2023/03/28 02:49:02;;;;;;;0.85;0.50;;;17.90;43.60;;;;;;6019001;23;20206;-84
2023/03/28 02:51:39;;;;;;;1.73;0.65;;;17.90;43.80;;;;;;6000021;23;20162;-84
2023/03/28 02:54:42;;;;;;;0.95;0.60;;;17.90;43.70;;;;;;5978421;23;20177;-83
2023/03/28 02:57:21;;;;;;;1.02;0.50;;;17.90;43.60;;;;;;6024500;23;20214;-83
2023/03/28 02:59:57;;;;;;;0.65;0.47;;;17.90;43.70;;;;;;5954308;23;20572;-83
2023/03/28 03:02:23;;;;;;;1.13;0.60;;;17.90;43.80;;;;;;6047476;23;20183;-84
2023/03/28 03:04:56;;;;;;;1.25;0.50;;;17.90;43.70;;;;;;6023575;23;20594;-85
2023/03/28 03:07:26;;;;;;;0.40;0.40;;;17.80;43.70;;;;;;6023533;23;20170;-83
2023/03/28 03:09:59;;;;;;;1.38;0.50;;;17.90;43.80;;;;;;5975961;23;20497;-83
2023/03/28 03:12:29;;;;;;;0.90;0.60;;;17.80;43.70;;;;;;5976468;23;20159;-84
2023/03/28 03:14:59;;;;;;;0.65;0.40;;;17.90;43.60;;;;;;5959738;23;20165;-84
2023/03/28 03:17:30;;;;;;;1.30;0.50;;;17.90;43.70;;;;;;6053467;23;20221;-84
2023/03/28 03:20:01;;;;;;;0.95;0.60;;;17.90;43.80;;;;;;6004103;23;20189;-84
2023/03/28 03:22:32;;;;;;;0.60;0.50;;;17.80;43.70;;;;;;6028977;23;20154;-84
2023/03/28 03:25:05;;;;;;;0.88;0.50;;;17.80;43.70;;;;;;6004692;23;20161;-84
2023/03/28 03:27:32;;;;;;;0.60;0.45;;;17.80;43.90;;;;;;6052971;23;20598;-84
2023/03/28 03:30:03;;;;;;;1.08;0.60;;;17.80;43.90;;;;;;6052407;23;20139;-84
2023/03/28 03:32:29;;;;;;;1.70;0.60;;;17.80;43.80;;;;;;6005294;23;20157;-84
2023/03/28 03:35:03;;;;;;;1.60;0.55;;;17.80;43.60;;;;;;6053006;23;20141;-84
2023/03/28 03:37:36;;;;;;;0.95;0.50;;;17.80;43.80;;;;;;5982010;23;20158;-84
2023/03/28 03:40:08;;;;;;;1.48;0.55;;;17.90;43.70;;;;;;6027528;23;20229;-84
2023/03/28 03:42:35;;;;;;;1.35;0.60;;;17.80;43.70;;;;;;5981750;23;20231;-84
2023/03/28 03:45:05;;;;;;;1.40;0.68;;;17.90;43.70;;;;;;6029317;23;20146;-83
2023/03/28 03:47:34;;;;;;;0.50;0.47;;;17.80;43.70;;;;;;5981391;23;20154;-84
2023/03/28 03:50:00;;;;;;;0.40;0.40;;;17.90;43.80;;;;;;6029185;23;20146;-84
2023/03/28 03:52:26;;;;;;;1.02;0.50;;;17.90;43.70;;;;;;6053170;23;20613;-84
2023/03/28 03:54:52;;;;;;;1.42;0.55;;;17.90;43.90;;;;;;6029565;23;20150;-84
2023/03/28 03:57:21;;;;;;;1.13;0.57;;;17.90;44.00;;;;;;6052782;23;20201;-84
2023/03/28 03:59:56;;;;;;;1.58;0.50;;;17.80;43.90;;;;;;6029469;23;20193;-84
2023/03/28 04:02:33;;;;;;;1.65;0.55;;;17.80;43.80;;;;;;6006515;23;20162;-83
2023/03/28 04:05:04;;;;;;;1.50;0.70;;;17.90;44.00;;;;;;6028131;23;20621;-84
2023/03/28 04:07:33;;;;;;;0.55;0.55;;;17.80;44.10;;;;;;6005130;23;20673;-83
2023/03/28 04:10:00;;;;;;;0.70;0.50;;;17.80;43.90;;;;;;5981713;23;20168;-83
2023/03/28 04:12:29;;;;;;;1.38;0.70;;;17.80;43.90;;;;;;6028736;23;20150;-84
2023/03/28 04:15:01;;;;;;;1.15;0.50;;;17.90;44.00;;;;;;5981003;23;20603;-84
2023/03/28 04:17:28;;;;;;;1.05;0.50;;;17.90;44.10;;;;;;6003941;23;20174;-84
2023/03/28 04:19:58;;;;;;;1.15;0.50;;;17.80;44.00;;;;;;6029014;23;20174;-84
2023/03/28 04:22:28;;;;;;;1.35;0.50;;;17.80;43.80;;;;;;5925065;24;20315;-83
2023/03/28 04:25:00;;;;;;;0.80;0.40;;;17.90;43.90;;;;;;5994792;24;20156;-84
2023/03/28 04:27:32;;;;;;;0.47;0.47;;;17.80;44.00;;;;;;5977092;23;20190;-84
2023/03/28 04:30:03;;;;;;;0.95;0.50;;;17.90;44.00;;;;;;6023057;23;20144;-84
2023/03/28 04:32:40;;;;;;;0.65;0.40;;;17.90;43.90;;;;;;5976232;23;20162;-84
2023/03/28 04:35:10;;;;;;;1.52;0.57;;;17.80;44.00;;;;;;5998963;23;20599;-84
2023/03/28 04:37:42;;;;;;;0.90;0.55;;;17.90;44.10;;;;;;6023959;23;20182;-84
2023/03/28 04:40:16;;;;;;;1.13;0.55;;;17.90;43.80;;;;;;5977501;23;20190;-84
2023/03/28 04:43:00;;;;;;;1.45;0.45;;;17.90;43.80;;;;;;5894716;24;20157;-84
2023/03/28 04:45:26;;;;;;;1.08;0.52;;;17.90;43.70;;;;;;5895825;24;20196;-84
2023/03/28 04:47:57;;;;;;;0.80;0.43;;;17.90;43.80;;;;;;5918014;24;20168;-84
2023/03/28 04:50:23;;;;;;;0.43;0.40;;;17.90;43.70;;;;;;5917908;24;20652;-84
2023/03/28 04:52:49;;;;;;;1.05;0.57;;;17.80;43.90;;;;;;5932607;24;20156;-84
2023/03/28 04:55:19;;;;;;;1.25;0.60;;;17.90;43.80;;;;;;5950692;24;20152;-84
2023/03/28 04:57:45;;;;;;;0.40;0.40;;;17.90;43.70;;;;;;5950481;24;20156;-84
2023/03/28 05:00:13;;;;;;;0.70;0.40;;;17.90;43.70;;;;;;5949814;24;20180;-84
2023/03/28 05:02:47;;;;;;;0.73;0.40;;;18.00;43.80;;;;;;5996065;24;20151;-84
2023/03/28 05:05:20;;;;;;;1.77;0.50;;;17.90;43.60;;;;;;5949873;24;20159;-84
2023/03/28 05:07:47;;;;;;;0.52;0.47;;;18.00;43.90;;;;;;5952041;24;20156;-83
2023/03/28 05:10:17;;;;;;;0.40;0.40;;;17.90;43.70;;;;;;5972824;24;20165;-84
2023/03/28 05:12:43;;;;;;;0.70;0.50;;;17.90;43.60;;;;;;5956194;23;20170;-84
2023/03/28 05:15:30;;;;;;;0.57;0.55;;;17.90;43.60;;;;;;6030468;23;20210;-84
2023/03/28 05:18:06;;;;;;;0.43;0.40;;;18.00;43.70;;;;;;6029533;23;20154;-84
2023/03/28 05:20:36;;;;;;;0.40;0.40;;;17.90;43.80;;;;;;6005852;23;20194;-84
2023/03/28 05:23:05;;;;;;;0.85;0.50;;;17.90;43.50;;;;;;6054127;23;20165;-84
2023/03/28 05:25:31;;;;;;;1.35;0.40;;;17.90;43.60;;;;;;6036832;23;20213;-84
2023/03/28 05:28:01;;;;;;;0.70;0.50;;;18.00;43.90;;;;;;6058429;23;20157;-84
2023/03/28 05:30:27;;;;;;;1.48;0.50;;;18.00;43.80;;;;;;6010759;23;20240;-84
2023/03/28 05:32:59;;;;;;;0.95;0.60;;;18.00;43.80;;;;;;6083084;23;20158;-83
2023/03/28 05:35:32;;;;;;;0.43;0.40;;;18.00;43.80;;;;;;6057874;23;20165;-83
2023/03/28 05:38:06;;;;;;;0.47;0.40;;;18.00;43.80;;;;;;6035938;23;20149;-84
2023/03/28 05:40:32;;;;;;;0.50;0.50;;;18.00;43.70;;;;;;6034316;23;20189;-84
2023/03/28 05:43:04;;;;;;;0.85;0.60;;;18.00;43.60;;;;;;6059226;23;20160;-83
2023/03/28 05:45:36;;;;;;;0.75;0.50;;;18.00;43.70;;;;;;6056360;23;20181;-83
2023/03/28 05:48:03;;;;;;;1.20;0.57;;;18.00;43.50;;;;;;6009869;23;20153;-83
2023/03/28 05:50:29;;;;;;;0.88;0.60;;;18.00;43.40;;;;;;6034011;23;20185;-84
2023/03/28 05:53:02;;;;;;;1.00;0.60;;;18.00;43.50;;;;;;6057672;23;20161;-84
2023/03/28 05:55:28;;;;;;;1.23;0.43;;;18.00;43.50;;;;;;6009369;23;20185;-83
2023/03/28 05:57:58;;;;;;;0.50;0.40;;;18.00;43.60;;;;;;6057069;23;20193;-83
2023/03/28 06:00:30;;;;;;;0.73;0.47;;;18.00;43.70;;;;;;6057020;23;20193;-84
2023/03/28 06:03:06;;;;;;;0.68;0.55;;;18.00;43.60;;;;;;6033703;23;20157;-83
2023/03/28 06:05:40;;;;;;;0.68;0.50;;;18.00;43.70;;;;;;5989432;23;20169;-83
2023/03/28 06:08:09;;;;;;;0.50;0.43;;;18.00;43.50;;;;;;6033847;23;20157;-84
2023/03/28 06:10:45;;;;;;;1.25;0.50;;;18.00;43.60;;;;;;6057319;23;20213;-83
2023/03/28 06:13:11;;;;;;;0.95;0.70;;;18.00;43.50;;;;;;6033297;23;20252;-84
2023/03/28 06:15:37;;;;;;;1.48;0.60;;;18.00;43.50;;;;;;6057735;23;20216;-84
2023/03/28 06:18:07;;;;;;;0.65;0.40;;;18.00;43.60;;;;;;6083343;23;20261;-84
2023/03/28 06:20:33;;;;;;;0.95;0.50;;;18.00;43.50;;;;;;6057739;23;20238;-83
2023/03/28 06:23:02;;;;;;;0.45;0.45;;;18.00;43.50;;;;;;6057311;23;20530;-84
2023/03/28 06:25:31;;;;;;;1.27;0.40;;;18.00;43.60;;;;;;6081961;23;20592;-84
2023/03/28 06:27:57;;;;;;;0.60;0.50;;;18.10;43.30;;;;;;6052207;23;20161;-84
2023/03/28 06:30:27;;;;;;;0.77;0.52;;;18.00;43.50;;;;;;6028418;23;20487;-84
2023/03/28 06:33:02;;;;;;;0.93;0.57;;;18.00;43.40;;;;;;5981389;23;20162;-84
2023/03/28 06:35:42;;;;;;;1.23;0.60;;;18.00;43.50;;;;;;6004453;23;20156;-84
2023/03/28 06:38:17;;;;;;;0.65;0.47;;;18.10;43.00;;;;;;6004525;23;20284;-84
2023/03/28 06:40:43;;;;;;;1.30;0.50;;;18.10;43.20;;;;;;6005837;23;20157;-84
2023/03/28 06:43:15;;;;;;;0.57;0.40;;;18.20;43.20;;;;;;6005433;23;20217;-84
2023/03/28 06:45:47;;;;;;;1.05;0.60;;;18.10;43.30;;;;;;6028957;23;20138;-84
2023/03/28 06:48:30;;;;;;;0.90;0.50;;;18.20;43.20;;;;;;6004585;23;20157;-84
2023/03/28 06:51:01;;;;;;;1.08;0.60;;;18.20;43.20;;;;;;6029670;23;20205;-84
2023/03/28 06:53:36;;;;;;;0.28;0.28;;;18.10;43.10;;;;;;5982843;23;20245;-84
2023/03/28 06:56:11;;;;;;;1.30;0.50;;;18.20;43.00;;;;;;5981958;23;20137;-84
2023/03/28 06:58:41;;;;;;;0.60;0.40;;;18.20;42.90;;;;;;6046871;23;20613;-84
2023/03/28 07:01:10;;;;;;;0.50;0.50;;;18.20;43.00;;;;;;6032443;23;20177;-84
2023/03/28 07:03:40;;;;;;;0.30;0.30;;;18.20;42.80;;;;;;6057490;23;20177;-84
2023/03/28 07:06:20;;;;;;;0.90;0.40;;;18.20;42.90;;;;;;6032804;23;20160;-83
2023/03/28 07:08:51;;;;;;;0.65;0.57;;;18.20;43.20;;;;;;6057642;23;20164;-84
2023/03/28 07:11:25;;;;;;;0.47;0.45;;;18.20;42.80;;;;;;6083596;23;20439;-86
2023/03/28 07:13:52;;;;;;;1.95;0.60;;;18.20;43.00;;;;;;6023258;23;20162;-85
2023/03/28 07:16:24;;;;;;;0.40;0.40;;;18.20;42.90;;;;;;6000082;23;20603;-84
2023/03/28 07:18:55;;;;;;;0.52;0.40;;;18.30;43.50;;;;;;5977456;23;20670;-84
2023/03/28 07:21:27;;;;;;;1.38;0.60;;;18.30;42.80;;;;;;5953767;23;20159;-85
2023/03/28 07:23:52;;;;;;;0.50;0.50;;;18.30;42.80;;;;;;5953880;23;20159;-84
2023/03/28 07:26:18;;;;;;;0.43;0.40;;;18.30;42.80;;;;;;5999894;23;20521;-85
2023/03/28 07:28:44;;;;;;;0.40;0.40;;;18.30;42.80;;;;;;6001956;23;20154;-84
2023/03/28 07:31:15;;;;;;;0.80;0.40;;;18.20;42.70;;;;;;5946026;24;20160;-84
2023/03/28 07:33:44;;;;;;;0.30;0.20;;;18.30;42.60;;;;;;5900069;24;20163;-84
2023/03/28 07:36:15;;;;;;;0.32;0.30;;;18.30;42.60;;;;;;5918028;24;20189;-84
2023/03/28 07:38:41;;;;;;;0.55;0.50;;;18.30;42.60;;;;;;5917474;24;20208;-85
2023/03/28 07:41:12;;;;;;;0.40;0.30;;;18.30;42.50;;;;;;5939671;24;20164;-85
2023/03/28 07:43:38;;;;;;;0.30;0.30;;;18.30;42.00;;;;;;5849010;24;20220;-85
2023/03/28 07:46:13;;;;;;;0.40;0.40;;;18.30;42.50;;;;;;5836173;24;20183;-84
2023/03/28 07:48:47;;;;;;;1.15;0.30;;;18.30;42.50;;;;;;5857032;24;20169;-85
2023/03/28 07:51:34;;;;;;;0.45;0.40;;;18.30;42.50;;;;;;5813397;24;20219;-84
2023/03/28 07:54:00;;;;;;;0.50;0.50;;;18.40;42.50;;;;;;5860144;24;20179;-85
2023/03/28 07:56:29;;;;;;;0.63;0.40;;;18.30;42.40;;;;;;5858358;24;20231;-84
2023/03/28 07:59:00;;;;;;;0.40;0.40;;;18.30;42.40;;;;;;5859095;24;20199;-83
2023/03/28 08:01:34;;;;;;;0.35;0.30;;;18.30;42.40;;;;;;5847031;24;20157;-84
2023/03/28 08:04:07;;;;;;;0.30;0.30;;;18.30;42.60;;;;;;5867736;24;20153;-83
2023/03/28 08:06:54;;;;;;;0.80;0.40;;;18.20;42.50;;;;;;5874102;24;20164;-83
2023/03/28 08:09:41;;;;;;;0.40;0.40;;;18.20;42.30;;;;;;5917191;24;20175;-86
2023/03/28 08:12:08;;;;;;;1.20;0.30;;;18.30;42.30;;;;;;5918828;24;20232;-84
2023/03/28 08:14:37;;;;;;;0.95;0.30;;;18.30;42.50;;;;;;5918823;24;20216;-83
2023/03/28 08:17:10;;;;;;;0.85;0.40;;;18.30;42.50;;;;;;5944097;23;20234;-84
2023/03/28 08:19:44;;;;;;;0.40;0.30;;;18.30;42.50;;;;;;5978092;23;20182;-84
2023/03/28 08:22:11;;;;;;;0.55;0.40;;;18.40;42.00;;;;;;5946165;24;20212;-83
2023/03/28 08:24:44;;;;;;;0.30;0.30;;;18.40;42.10;;;;;;5896290;24;20160;-83
2023/03/28 08:27:22;;;;;;;0.73;0.40;;;18.40;42.00;;;;;;5937190;24;20196;-83
2023/03/28 08:29:52;;;;;;;0.38;0.38;;;18.40;42.20;;;;;;5941462;24;20163;-84
2023/03/28 08:32:25;;;;;;;0.38;0.30;;;18.40;42.20;;;;;;5942295;24;20161;-83
2023/03/28 08:34:56;;;;;;;0.43;0.30;;;18.30;41.90;;;;;;5941408;24;20193;-85
2023/03/28 08:37:26;;;;;;;0.40;0.30;;;18.40;42.20;;;;;;5941720;24;20161;-84
2023/03/28 08:39:53;;;;;;;0.57;0.30;;;18.40;41.70;;;;;;5918921;24;20185;-84
2023/03/28 08:42:36;;;;;;;0.30;0.30;;;18.40;41.70;;;;;;5932264;24;20185;-84
2023/03/28 08:45:25;;;;;;;0.20;0.20;;;18.40;41.90;;;;;;5913158;24;20192;-84
2023/03/28 08:48:10;;;;;;;0.40;0.40;;;18.40;41.90;;;;;;5936752;24;20164;-83
2023/03/28 08:50:43;;;;;;;0.20;0.20;;;18.40;42.10;;;;;;5912632;24;20161;-83
2023/03/28 08:53:26;;;;;;;0.40;0.30;;;18.40;41.90;;;;;;5913139;24;20161;-84
2023/03/28 08:55:55;;;;;;;0.22;0.22;;;18.40;41.90;;;;;;5932763;23;20159;-83
2023/03/28 08:58:26;;;;;;;0.30;0.30;;;18.40;42.10;;;;;;6032495;23;20147;-83
2023/03/28 09:01:02;;;;;;;0.30;0.30;;;18.40;42.00;;;;;;6053484;23;20154;-83
2023/03/28 09:03:40;;;;;;;0.90;0.22;;;18.40;41.90;;;;;;5984507;23;20153;-82
2023/03/28 09:06:27;;;;;;;0.30;0.20;;;18.30;42.10;;;;;;6011248;23;20185;-84
2023/03/28 09:09:20;;;;;;;0.30;0.30;;;18.40;42.10;;;;;;6032229;23;20158;-84
2023/03/28 09:12:10;;;;;;;0.73;0.40;;;18.40;41.90;;;;;;6013832;23;20459;-83
2023/03/28 09:14:55;;;;;;;0.20;0.20;;;18.30;41.90;;;;;;5989846;23;20229;-83
2023/03/28 09:18:08;;;;;;;1.10;0.32;;;18.40;41.80;;;;;;5942142;23;20282;-84
2023/03/28 09:20:44;;;;;;;0.95;0.30;;;18.40;41.90;;;;;;6005674;23;20185;-84
2023/03/28 09:23:40;;;;;;;0.52;0.30;;;18.40;41.80;;;;;;6031155;23;20157;-84
2023/03/28 09:26:23;;;;;;;0.50;0.30;;;18.30;42.10;;;;;;5990647;23;20189;-84
2023/03/28 09:29:15;;;;;;;1.35;0.32;;;18.30;42.20;;;;;;6053462;23;20149;-83
2023/03/28 09:31:51;;;;;;;0.25;0.25;;;18.40;42.30;;;;;;5971060;24;20620;-85
2023/03/28 09:34:27;;;;;;;0.30;0.30;;;18.30;41.90;;;;;;5973275;24;20174;-84
2023/03/28 09:37:00;;;;;;;0.65;0.40;;;18.40;41.80;;;;;;5973383;24;20158;-85
2023/03/28 09:39:47;;;;;;;0.30;0.22;;;18.40;41.70;;;;;;5972452;24;20268;-84
2023/03/28 09:42:41;;;;;;;0.47;0.30;;;18.40;41.70;;;;;;5973218;24;20607;-85
2023/03/28 09:45:49;;;;;;;0.75;0.30;;;18.40;41.30;;;;;;5961190;24;20220;-84
2023/03/28 09:48:32;;;;;;;0.20;0.20;;;18.40;41.40;;;;;;5917482;24;20222;-85
2023/03/28 09:51:03;;;;;;;0.80;0.50;;;18.50;41.50;;;;;;5962873;24;20167;-84
2023/03/28 09:53:35;;;;;;;0.30;0.30;;;18.50;41.70;;;;;;5962952;24;20156;-85
2023/03/28 09:56:26;;;;;;;0.20;0.20;;;18.50;42.00;;;;;;5968432;24;20156;-86
2023/03/28 09:59:50;;;;;;;0.52;0.45;;;18.50;41.80;;;;;;5944726;24;20648;-86
2023/03/28 10:02:32;;;;;;;0.50;0.40;;;18.50;41.70;;;;;;5977673;24;20159;-84
2023/03/28 10:04:57;;;;;;;0.30;0.30;;;18.50;41.70;;;;;;5919697;24;20161;-84
2023/03/28 10:07:47;;;;;;;0.50;0.30;;;18.40;41.90;;;;;;5895739;24;20590;-83
2023/03/28 10:11:11;;;;;;;0.63;0.32;;;18.50;41.50;;;;;;5869707;24;20196;-84
2023/03/28 10:14:10;;;;;;;0.45;0.30;;;18.50;41.80;;;;;;5854456;24;20256;-84
2023/03/28 10:16:53;;;;;;;0.25;0.25;;;18.50;41.70;;;;;;5813331;24;20159;-85
2023/03/28 10:19:24;;;;;;;0.35;0.32;;;18.50;41.40;;;;;;5832902;24;20187;-84
2023/03/28 10:21:50;;;;;;;0.30;0.20;;;18.50;41.20;;;;;;5832826;24;20155;-84
2023/03/28 10:24:22;;;;;;;0.30;0.30;;;18.50;41.30;;;;;;5826811;24;20159;-84
2023/03/28 10:26:55;;;;;;;0.38;0.28;;;18.50;41.20;;;;;;5874396;24;20232;-84
2023/03/28 10:29:25;;;;;;;0.30;0.30;;;18.50;41.60;;;;;;5865867;24;20183;-83
2023/03/28 10:31:55;;;;;;;0.30;0.25;;;18.50;41.20;;;;;;5831445;24;20170;-85
2023/03/28 10:34:32;;;;;;;0.43;0.30;;;18.60;41.20;;;;;;5801759;24;20170;-84
2023/03/28 10:37:00;;;;;;;0.30;0.30;;;18.50;41.30;;;;;;5821943;24;20188;-83
2023/03/28 10:39:32;;;;;;;0.40;0.40;;;18.60;41.10;;;;;;5882239;24;20533;-84
2023/03/28 10:42:00;;;;;;;0.30;0.30;;;18.60;40.80;;;;;;5955909;24;20162;-82
2023/03/28 10:44:34;;;;;;;0.75;0.30;;;18.60;41.20;;;;;;5943907;24;20166;-84
2023/03/28 10:47:09;;;;;;;0.35;0.30;;;18.60;41.00;;;;;;5948966;24;20179;-81
2023/03/28 10:49:45;;;;;;;0.28;0.28;;;18.60;40.90;;;;;;5972645;24;20190;-83
2023/03/28 10:52:34;;;;;;;0.20;0.20;;;18.60;40.90;;;;;;5952383;23;20463;-82
2023/03/28 10:55:16;;;;;;;0.35;0.25;;;18.60;41.00;;;;;;6022530;23;20155;-82
2023/03/28 10:57:57;;;;;;;0.73;0.30;;;18.60;40.80;;;;;;5933288;23;20185;-82
2023/03/28 11:00:39;;;;;;;0.40;0.40;;;18.60;41.10;;;;;;5926125;23;20539;-85
2023/03/28 11:03:39;;;;;;;0.32;0.25;;;18.60;41.00;;;;;;5998540;23;20177;-85
2023/03/28 11:06:26;;;;;;;0.30;0.25;;;18.60;41.00;;;;;;5984058;23;20231;-83
2023/03/28 11:09:09;;;;;;;0.30;0.30;;;18.60;41.20;;;;;;5978956;23;20553;-85
2023/03/28 11:11:53;;;;;;;0.38;0.38;;;18.60;40.80;;;;;;6022738;23;20622;-85
2023/03/28 11:14:35;;;;;;;0.20;0.20;;;18.60;40.80;;;;;;6022573;23;20224;-84
2023/03/28 11:17:32;;;;;;;0.22;0.22;;;18.60;41.10;;;;;;6046595;23;20138;-84
2023/03/28 11:20:16;;;;;;;0.30;0.30;;;18.70;41.00;;;;;;5998965;23;20197;-83
2023/03/28 11:23:08;;;;;;;0.43;0.30;;;18.70;40.80;;;;;;6008091;23;20624;-84
2023/03/28 11:25:45;;;;;;;0.57;0.20;;;18.60;40.80;;;;;;6006128;23;20197;-83
2023/03/28 11:28:35;;;;;;;0.10;0.10;;;18.60;40.60;;;;;;5995157;23;20464;-83
2023/03/28 11:31:03;;;;;;;0.30;0.30;;;18.70;40.70;;;;;;5993665;23;20164;-83
2023/03/28 11:33:42;;;;;;;0.30;0.30;;;18.70;40.50;;;;;;6041370;23;20142;-83
2023/03/28 11:36:13;;;;;;;0.20;0.20;;;18.60;40.70;;;;;;6041172;23;20451;-83
2023/03/28 11:38:41;;;;;;;0.38;0.35;;;18.60;41.00;;;;;;6040242;23;20158;-84
2023/03/28 11:41:14;;;;;;;0.30;0.30;;;18.60;41.20;;;;;;6040805;23;20191;-83
2023/03/28 11:43:52;;;;;;;0.40;0.30;;;18.60;41.20;;;;;;6016885;23;20146;-83
2023/03/28 11:46:23;;;;;;;1.17;0.43;;;18.50;41.20;;;;;;6043838;23;20130;-83
2023/03/28 11:49:07;;;;;;;0.20;0.20;;;18.60;40.80;;;;;;6042511;23;20197;-85
2023/03/28 11:51:35;;;;;;;0.20;0.20;;;18.60;41.10;;;;;;6047309;23;20146;-85
2023/03/28 11:54:20;;;;;;;0.20;0.20;;;18.60;40.90;;;;;;6027175;23;20162;-85
2023/03/28 11:56:56;;;;;;;0.45;0.20;;;18.60;40.80;;;;;;5924826;24;20166;-85
2023/03/28 11:59:32;;;;;;;0.20;0.20;;;18.60;40.80;;;;;;5968940;24;20179;-85
2023/03/28 12:02:03;;;;;;;0.35;0.35;;;18.70;40.50;;;;;;5964356;24;20151;-85
2023/03/28 12:04:40;;;;;;;0.20;0.20;;;18.70;40.20;;;;;;5966089;24;20143;-85
2023/03/28 12:07:17;;;;;;;0.55;0.30;;;18.70;40.50;;;;;;5922298;24;20182;-84
2023/03/28 12:10:19;;;;;;;0.20;0.20;;;18.60;40.50;;;;;;5963930;24;20348;-84
2023/03/28 12:13:10;;;;;;;0.20;0.20;;;18.60;40.30;;;;;;5963833;24;20245;-85
2023/03/28 12:15:46;;;;;;;0.93;0.30;;;18.70;40.10;;;;;;5893745;24;20157;-85
2023/03/28 12:18:24;;;;;;;0.30;0.30;;;18.70;40.10;;;;;;5932114;24;20164;-84
2023/03/28 12:21:15;;;;;;;0.25;0.20;;;18.70;40.40;;;;;;5953284;24;20519;-84
2023/03/28 12:24:12;;;;;;;0.77;0.30;;;18.60;40.70;;;;;;5951911;24;20226;-85
2023/03/28 12:26:57;;;;;;;0.30;0.30;;;18.50;40.50;;;;;;5958652;23;20198;-85
2023/03/28 12:29:30;;;;;;;0.20;0.20;;;18.60;40.10;;;;;;5987135;23;20151;-85
2023/03/28 12:32:53;;;;;;;0.30;0.30;;;18.70;40.20;;;;;;5986889;23;20638;-85
2023/03/28 12:35:30;;;;;;;0.20;0.20;;;18.70;40.40;;;;;;6004999;23;20246;-85
2023/03/28 12:38:06;;;;;;;0.55;0.20;;;18.60;40.30;;;;;;5975197;23;20166;-86
2023/03/28 12:40:55;;;;;;;0.20;0.20;;;18.70;39.90;;;;;;5972632;23;20280;-86
2023/03/28 12:43:25;;;;;;;0.40;0.40;;;18.70;40.30;;;;;;6041630;23;20213;-86
2023/03/28 12:45:56;;;;;;;0.25;0.25;;;18.70;40.10;;;;;;5988658;23;20180;-86
2023/03/28 12:48:51;;;;;;;0.25;0.25;;;18.60;40.20;;;;;;6056673;23;20603;-87
2023/03/28 12:51:41;;;;;;;0.20;0.20;;;18.60;40.20;;;;;;6014981;23;20167;-87
2023/03/28 12:54:33;;;;;;;0.20;0.20;;;18.60;40.30;;;;;;6032119;23;20433;-86
2023/03/28 12:57:11;;;;;;;1.70;0.30;;;18.60;40.10;;;;;;6039889;23;20153;-87
2023/03/28 12:59:39;;;;;;;0.82;0.32;;;18.60;40.30;;;;;;6091505;23;20623;-87
2023/03/28 13:03:06;;;;;;;3.65;0.40;;;18.60;40.50;;;;;;6083613;23;20153;-86
2023/03/28 13:05:54;;;;;;;1.25;0.45;;;18.60;40.40;;;;;;5995380;24;20160;-86
2023/03/28 13:08:32;;;;;;;1.40;0.20;;;18.60;40.10;;;;;;5986586;24;20159;-85
2023/03/28 13:11:17;;;;;;;0.40;0.30;;;18.50;40.10;;;;;;5996053;24;20618;-87
2023/03/28 13:14:25;;;;;;;2.20;0.50;;;18.50;40.10;;;;;;5996080;24;20155;-86
2023/03/28 13:16:55;;;;;;;0.60;0.32;;;18.50;40.20;;;;;;5971409;24;20246;-85
2023/03/28 13:23:01;;;;;;;0.32;0.30;;;18.70;39.50;;;;;;5934239;24;20210;-85
2023/03/28 13:26:14;;;;;;;;;;;;;;;;;;;;;
2023/03/28 13:28:46;;;;;;;0.40;0.25;;;18.70;39.40;;;;;;5772533;24;20229;-86
2023/03/28 13:31:59;;;;;;;;;;;;;;;;;;;;;
2023/03/28 13:35:26;;;;;;;;;;;;;;;;;;;;;
2023/03/28 13:38:21;;;;;;;;;;;;;;;;;;;;;
2023/03/28 13:44:34;;;;;;;;;;;;;;;;;;;;;
2023/03/28 13:51:25;;;;;;;;;;;;;;;;;;;;;
2023/03/28 13:54:44;;;;;;;0.77;0.32;;;18.70;39.80;;;;;;5702074;25;20201;-85
2023/03/28 14:01:17;;;;;;;;;;;;;;;;;;;;;